Terminal Aerodrome Forecast
Issued by NWS

Home | Current Version | Previous Version | Text Only | Print | Product List | Glossary On
Versions: 1 2 3 4 5 6 7 8 9 10 11 12 13 14 15
000
FTAK31 PAFA 262325
TAFAGA
TAF
PAGA 262325Z 2700/2724 27005KT P6SM OVC035
     FM270300 31006KT P6SM SCT035 SCT120
     FM271000 VRB03KT 2SM BR SCT003=

USA.gov is the U.S. government's official web portal to all federal, state and local government web resources and services.